Time;durP1;ratioP1;P1;durP2;ratioP2;P2;SDS_P1;SDS_P2;PMS_P1;PMS_P2;Temp;Humidity;BMP_temperature;BMP_pressure;BME280_temperature;BME280_humidity;BME280_pressure;Samples;Min_cycle;Max_cycle;Signal;HPM_P1;HPM_P2
2022/11/01 00:01:50;;;;;;;;;1.50;1.00;;;;;18.44;56.52;100529.81;5069915;28;45485;-45
2022/11/01 00:04:16;;;;;;;;;1.00;1.00;;;;;18.39;56.43;100536.25;5072158;28;45437;-43
2022/11/01 00:06:41;;;;;;;;;2.00;1.25;;;;;18.38;56.59;100542.50;5067584;28;45330;-45
2022/11/01 00:09:07;;;;;;;;;2.00;0.00;;;;;18.36;56.63;100540.88;5075078;28;46265;-43
2022/11/01 00:11:32;;;;;;;;;2.50;0.75;;;;;18.34;56.06;100534.84;5071777;28;45342;-45
2022/11/01 00:13:58;;;;;;;;;0.75;0.00;;;;;18.33;56.45;100543.75;5066183;28;68502;-48
2022/11/01 00:16:23;;;;;;;;;0.00;0.00;;;;;18.28;56.05;100537.88;5070199;28;45386;-46
2022/11/01 00:18:49;;;;;;;;;1.00;1.00;;;;;18.26;55.97;100560.97;5071799;27;47274;-45
2022/11/01 00:21:14;;;;;;;;;0.00;0.00;;;;;18.21;55.78;100562.09;5073145;27;69074;-42
2022/11/01 00:23:40;;;;;;;;;1.00;0.75;;;;;18.16;56.05;100556.22;5071497;28;45609;-47
2022/11/01 00:26:06;;;;;;;;;3.75;1.00;;;;;18.13;55.74;100559.09;5072087;27;45522;-44
2022/11/01 00:28:32;;;;;;;;;2.00;0.00;;;;;18.12;55.89;100569.75;5069008;27;45460;-43
2022/11/01 00:30:58;;;;;;;;;0.00;0.00;;;;;18.08;55.70;100571.75;5064647;28;45577;-44
2022/11/01 00:33:24;;;;;;;;;1.00;0.00;;;;;18.07;55.53;100580.63;5063555;28;45652;-43
2022/11/01 00:35:50;;;;;;;;;3.00;1.00;;;;;18.03;54.89;100587.06;5072271;27;45650;-45
2022/11/01 00:38:16;;;;;;;;;1.00;0.00;;;;;18.00;55.48;100587.25;5073902;28;46094;-45
2022/11/01 00:40:42;;;;;;;;;2.00;1.00;;;;;17.94;55.15;100601.72;5074762;27;45394;-46
2022/11/01 00:43:08;;;;;;;;;0.25;0.00;;;;;17.89;54.93;100600.28;5084229;27;45296;-47
2022/11/01 00:45:33;;;;;;;;;1.00;1.00;;;;;17.84;54.94;100598.72;5081175;27;45277;-44
2022/11/01 00:47:59;;;;;;;;;0.00;0.00;;;;;17.80;54.28;100604.31;5092729;27;75288;-43
2022/11/01 00:50:24;;;;;;;;;0.00;0.00;;;;;17.73;54.38;100622.31;5077479;27;67528;-45
2022/11/01 00:52:50;;;;;;;;;0.75;0.00;;;;;17.68;54.31;100627.03;5074919;28;45504;-43
2022/11/01 00:55:15;;;;;;;;;1.00;0.00;;;;;17.59;53.71;100623.13;5076624;28;45499;-46
2022/11/01 00:57:40;;;;;;;;;1.25;0.00;;;;;17.55;53.42;100629.56;5075648;27;46463;-43
2022/11/01 01:00:07;;;;;;;;;0.00;0.00;;;;;17.49;53.40;100634.34;5071660;27;45408;-44
2022/11/01 01:02:32;;;;;;;;;3.00;1.75;;;;;17.40;53.32;100641.84;5071794;27;45548;-42
2022/11/01 01:04:57;;;;;;;;;2.00;0.25;;;;;17.31;53.10;100650.31;5068378;27;45366;-45
2022/11/01 01:07:23;;;;;;;;;1.00;0.00;;;;;17.23;53.36;100657.84;5068438;27;71853;-43
2022/11/01 01:09:48;;;;;;;;;1.00;0.00;;;;;17.16;53.74;100656.50;5078022;27;54960;-42
2022/11/01 01:12:13;;;;;;;;;0.00;0.00;;;;;17.08;53.57;100663.03;5070013;27;66282;-47
2022/11/01 01:14:39;;;;;;;;;1.00;0.00;;;;;17.03;53.42;100670.38;5076750;28;45453;-42
2022/11/01 01:17:04;;;;;;;;;2.50;0.25;;;;;17.01;53.56;100672.22;5069738;27;66750;-44
2022/11/01 01:19:30;;;;;;;;;0.00;0.00;;;;;16.97;53.24;100677.78;5078646;27;45309;-44
2022/11/01 01:21:55;;;;;;;;;3.75;1.00;;;;;16.93;53.43;100677.09;5070575;27;45662;-43
2022/11/01 01:24:21;;;;;;;;;1.50;0.00;;;;;16.94;53.60;100678.78;5072066;28;45442;-44
2022/11/01 01:26:47;;;;;;;;;0.00;0.00;;;;;16.92;53.94;100679.84;5075271;28;46325;-44
2022/11/01 01:29:12;;;;;;;;;1.00;0.00;;;;;16.87;53.44;100678.31;5074707;27;73352;-48
2022/11/01 01:31:38;;;;;;;;;0.00;0.00;;;;;16.85;53.07;100682.78;5078129;27;62527;-45
2022/11/01 01:34:03;;;;;;;;;1.00;0.00;;;;;16.81;53.63;100690.97;5072116;27;45442;-42
2022/11/01 01:36:29;;;;;;;;;1.00;1.00;;;;;16.75;53.71;100689.50;5074988;27;46014;-44
2022/11/01 01:38:54;;;;;;;;;2.50;0.25;;;;;16.72;53.64;100700.22;5079588;27;67072;-45
2022/11/01 01:44:41;;;;;;;;;0.00;0.00;;;;;16.67;53.56;100705.75;5070991;27;45474;-43
2022/11/01 01:47:08;;;;;;;;;2.00;1.00;;;;;16.61;53.74;100711.38;5073768;27;45356;-43
2022/11/01 01:49:34;;;;;;;;;0.00;0.00;;;;;16.59;53.87;100713.25;5079316;27;45594;-45
2022/11/01 01:51:59;;;;;;;;;2.00;1.00;;;;;16.53;53.43;100724.13;5077157;27;63195;-43
2022/11/01 01:54:25;;;;;;;;;3.00;0.00;;;;;16.48;53.18;100723.50;5070512;27;68893;-44
2022/11/01 01:56:50;;;;;;;;;0.00;0.00;;;;;16.42;53.12;100722.03;5068452;28;65536;-47
2022/11/01 01:59:15;;;;;;;;;2.25;0.00;;;;;16.40;53.63;100725.69;5078024;27;63739;-43
2022/11/01 02:01:41;;;;;;;;;3.00;0.00;;;;;16.37;52.63;100731.97;5073577;27;45269;-43
2022/11/01 02:04:11;;;;;;;;;0.75;0.00;;;;;16.31;53.08;100741.06;5074079;27;67871;-48
2022/11/01 02:06:36;;;;;;;;;1.25;0.00;;;;;16.26;53.12;100734.31;5063020;28;45944;-46
2022/11/01 02:09:03;;;;;;;;;2.00;1.00;;;;;16.25;53.52;100745.81;5071886;27;45477;-49
2022/11/01 02:11:29;;;;;;;;;1.75;0.00;;;;;16.20;52.55;100758.38;5075907;27;45372;-46
2022/11/01 02:13:55;;;;;;;;;0.00;0.00;;;;;16.15;52.86;100748.06;5073908;28;45633;-47
2022/11/01 02:16:41;;;;;;;;;0.00;0.00;;;;;16.10;52.80;100750.09;5069122;27;74625;-47
2022/11/01 02:19:39;;;;;;;;;0.00;0.00;;;;;16.06;53.12;100759.94;5069105;28;45338;-43
2022/11/01 02:22:23;;;;;;;;;2.00;0.00;;;;;16.04;53.18;100751.25;5062574;28;45486;-42
2022/11/01 02:25:25;;;;;;;;;1.00;0.00;;;;;16.04;53.02;100759.16;5065015;27;45268;-43
2022/11/01 02:27:56;;;;;;;;;0.75;0.00;;;;;16.04;53.01;100761.81;5091113;27;46397;-42
2022/11/01 02:30:22;;;;;;;;;0.00;0.00;;;;;16.04;52.73;100760.94;5068388;28;45557;-42
2022/11/01 02:32:53;;;;;;;;;0.00;0.00;;;;;16.04;53.16;100769.72;5062717;28;45420;-42
2022/11/01 02:35:23;;;;;;;;;1.00;1.00;;;;;16.04;53.28;100771.50;5072025;28;45387;-42
2022/11/01 02:38:07;;;;;;;;;1.25;0.00;;;;;16.06;53.40;100783.69;5069001;27;46094;-42
2022/11/01 02:40:50;;;;;;;;;2.75;0.00;;;;;16.07;53.25;100795.09;5067351;28;45408;-42
2022/11/01 02:43:24;;;;;;;;;1.00;1.00;;;;;16.05;53.31;100792.53;5068241;27;45343;-42
2022/11/01 02:45:50;;;;;;;;;1.50;0.00;;;;;16.00;52.93;100801.63;5061662;28;45473;-42
2022/11/01 02:48:18;;;;;;;;;0.00;0.00;;;;;15.95;53.04;100799.19;5076325;27;46271;-42
2022/11/01 02:50:51;;;;;;;;;1.00;0.50;;;;;15.89;53.40;100807.41;5070937;27;45708;-42
2022/11/01 02:53:16;;;;;;;;;0.00;0.00;;;;;15.85;52.89;100805.84;5067999;28;45490;-42
2022/11/01 02:55:42;;;;;;;;;3.00;0.00;;;;;15.82;52.56;100806.00;5063805;27;71023;-43
2022/11/01 02:58:21;;;;;;;;;1.00;0.00;;;;;15.82;52.77;100817.41;5071180;27;73140;-44
2022/11/01 03:00:46;;;;;;;;;1.50;0.00;;;;;15.76;52.44;100820.34;5062435;28;45413;-43
2022/11/01 03:03:25;;;;;;;;;1.00;0.75;;;;;15.71;53.15;100828.44;5071885;27;45354;-44
2022/11/01 03:06:00;;;;;;;;;1.75;0.00;;;;;15.69;52.72;100830.28;5065156;28;45440;-42
2022/11/01 03:08:30;;;;;;;;;1.50;0.00;;;;;15.68;52.45;100835.63;5060740;28;45997;-42
2022/11/01 03:11:14;;;;;;;;;1.00;0.00;;;;;15.63;52.58;100837.63;5060518;28;45637;-43
2022/11/01 03:13:45;;;;;;;;;0.00;0.00;;;;;15.62;52.92;100849.97;5066576;27;45549;-44
2022/11/01 03:16:28;;;;;;;;;0.00;0.00;;;;;15.64;53.27;100855.19;5070638;28;45460;-46
2022/11/01 03:19:13;;;;;;;;;1.50;0.00;;;;;15.63;53.21;100850.81;5085948;27;47641;-44
2022/11/01 03:21:42;;;;;;;;;0.75;0.75;;;;;15.63;53.19;100853.47;5070581;28;45677;-43
2022/11/01 03:24:25;;;;;;;;;0.75;0.00;;;;;15.63;53.35;100858.72;5074873;28;45257;-45
2022/11/01 03:27:22;;;;;;;;;1.50;0.00;;;;;15.65;52.93;100854.25;5070124;28;45431;-42
2022/11/01 03:29:55;;;;;;;;;0.75;0.00;;;;;15.63;53.20;100856.94;5059653;28;45527;-43
2022/11/01 03:32:23;;;;;;;;;0.75;0.75;;;;;15.64;53.03;100869.22;5072505;28;45775;-44
2022/11/01 03:34:49;;;;;;;;;0.00;0.00;;;;;15.65;53.34;100870.94;5070622;28;45500;-45
2022/11/01 03:37:15;;;;;;;;;0.00;0.00;;;;;15.66;53.06;100877.06;5068240;27;46813;-42
2022/11/01 03:39:44;;;;;;;;;0.75;0.00;;;;;15.64;53.20;100886.84;5061491;28;69324;-43
2022/11/01 03:42:14;;;;;;;;;2.25;0.75;;;;;15.62;53.33;100900.09;5061380;28;45726;-42
2022/11/01 03:44:46;;;;;;;;;4.00;0.50;;;;;15.67;53.67;100902.50;5069761;28;45407;-44
2022/11/01 03:47:12;;;;;;;;;1.50;0.75;;;;;15.69;53.60;100904.16;5072685;27;45581;-42
2022/11/01 03:49:37;;;;;;;;;1.50;0.00;;;;;15.67;53.39;100908.66;5072302;27;46761;-42
2022/11/01 03:52:03;;;;;;;;;0.50;0.00;;;;;15.67;53.77;100898.09;5068750;28;45359;-42
2022/11/01 03:54:28;;;;;;;;;0.00;0.00;;;;;15.67;53.49;100905.16;5049445;28;59976;-44
2022/11/01 03:56:54;;;;;;;;;2.00;0.50;;;;;15.66;53.67;100904.28;5070476;27;70313;-45
2022/11/01 03:59:19;;;;;;;;;1.75;0.00;;;;;15.65;53.34;100912.28;5073461;28;46052;-42
2022/11/01 04:01:45;;;;;;;;;2.50;0.25;;;;;15.64;53.50;100924.63;5071239;27;66242;-42
2022/11/01 04:04:10;;;;;;;;;2.00;0.75;;;;;15.61;53.70;100932.66;5068464;28;65864;-43
2022/11/01 04:06:35;;;;;;;;;1.25;0.00;;;;;15.61;53.39;100931.81;5072332;27;45670;-44
2022/11/01 04:09:01;;;;;;;;;3.75;0.00;;;;;15.59;53.68;100928.41;5079522;27;53930;-44
2022/11/01 04:11:26;;;;;;;;;2.75;0.00;;;;;15.57;53.32;100941.66;5078278;27;56707;-45
2022/11/01 04:20:31;;;;;;;;;2.25;0.00;;;;;15.53;53.67;100938.28;5071640;27;67456;-43
2022/11/01 04:22:05;;;;;;;;;2.00;0.00;;;;;15.48;53.68;100960.53;5067676;27;45158;-45
2022/11/01 04:24:30;;;;;;;;;1.75;0.00;;;;;15.47;53.95;100962.28;5068733;28;45331;-45
2022/11/01 04:26:55;;;;;;;;;0.75;0.50;;;;;15.45;53.65;100971.22;5071051;28;47177;-47
2022/11/01 04:29:21;;;;;;;;;1.00;0.00;;;;;15.44;53.52;100986.19;5077945;27;70336;-48
2022/11/01 04:31:46;;;;;;;;;7.75;0.75;;;;;15.45;53.57;100992.31;5078345;27;70208;-45
2022/11/01 04:34:11;;;;;;;;;2.75;0.00;;;;;15.42;53.90;101003.81;5079701;27;64965;-47
2022/11/01 04:36:37;;;;;;;;;4.00;1.00;;;;;15.43;53.68;101004.72;5072174;27;63620;-43
2022/11/01 04:39:02;;;;;;;;;1.75;1.00;;;;;15.43;53.47;101016.09;5074097;27;46347;-42
2022/11/01 04:41:28;;;;;;;;;2.00;0.00;;;;;15.42;53.73;101011.75;5080941;27;46718;-43
2022/11/01 04:43:56;;;;;;;;;0.00;0.00;;;;;15.41;53.85;101012.69;5078923;27;45329;-42
2022/11/01 04:46:21;;;;;;;;;4.50;0.50;;;;;15.41;53.57;101015.31;5077889;27;45343;-44
2022/11/01 04:48:46;;;;;;;;;0.50;0.00;;;;;15.41;53.46;101020.59;5075006;28;45457;-44
2022/11/01 04:51:12;;;;;;;;;4.00;0.00;;;;;15.38;53.71;101011.00;5069468;27;72108;-45
2022/11/01 04:53:37;;;;;;;;;8.00;0.00;;;;;15.36;53.55;101019.94;5079557;27;45488;-42
2022/11/01 04:56:04;;;;;;;;;4.75;0.50;;;;;15.33;53.68;101018.28;5079153;27;45235;-42
2022/11/01 04:58:30;;;;;;;;;2.75;0.00;;;;;15.31;53.82;101021.91;5079413;28;46834;-45
2022/11/01 05:00:57;;;;;;;;;5.00;0.50;;;;;15.30;53.60;101025.47;5077065;27;45473;-43
2022/11/01 05:03:22;;;;;;;;;1.75;0.00;;;;;15.29;53.84;101027.22;5067718;27;45474;-43
2022/11/01 05:05:47;;;;;;;;;2.50;0.00;;;;;15.26;53.68;101037.91;5069965;27;46616;-42
2022/11/01 05:08:13;;;;;;;;;1.25;0.25;;;;;15.22;53.92;101044.22;5074182;27;73874;-43
2022/11/01 05:10:41;;;;;;;;;1.25;0.00;;;;;15.23;54.04;101048.59;5077473;27;45362;-41
2022/11/01 05:13:07;;;;;;;;;2.00;0.50;;;;;15.24;54.04;101052.94;5066447;27;46219;-44
2022/11/01 05:15:32;;;;;;;;;1.50;0.25;;;;;15.23;54.00;101053.00;5071972;28;45318;-43
2022/11/01 05:17:58;;;;;;;;;2.00;0.00;;;;;15.21;54.51;101049.56;5075238;27;46068;-42
2022/11/01 05:20:23;;;;;;;;;2.00;0.50;;;;;15.19;54.13;101047.88;5071918;28;45471;-42
2022/11/01 05:22:48;;;;;;;;;4.00;0.00;;;;;15.16;54.04;101047.97;5073500;27;54877;-42
2022/11/01 05:25:15;;;;;;;;;2.75;0.00;;;;;15.18;54.24;101061.94;5074370;27;45228;-46
2022/11/01 05:27:40;;;;;;;;;4.00;1.25;;;;;15.18;54.42;101058.47;5070943;27;46087;-44
2022/11/01 05:30:06;;;;;;;;;5.75;1.00;;;;;15.17;54.34;101062.91;5071319;27;45258;-43
2022/11/01 05:32:34;;;;;;;;;4.25;0.75;;;;;15.15;54.26;101056.81;5068482;28;45400;-43
2022/11/01 05:35:00;;;;;;;;;3.75;0.75;;;;;15.17;54.85;101059.38;5077908;27;45500;-43
2022/11/01 05:37:25;;;;;;;;;3.75;1.25;;;;;15.17;54.77;101062.91;5070448;28;46133;-43
2022/11/01 05:39:50;;;;;;;;;5.00;0.75;;;;;15.18;54.50;101079.56;5065365;28;69187;-42
2022/11/01 05:42:16;;;;;;;;;0.25;0.25;;;;;15.19;54.74;101081.25;5075357;28;63856;-42
2022/11/01 05:44:41;;;;;;;;;3.25;0.50;;;;;15.17;54.40;101081.34;5068276;27;71799;-44
2022/11/01 05:47:06;;;;;;;;;0.75;0.00;;;;;15.13;54.91;101081.53;5059788;28;67856;-42
2022/11/01 05:49:32;;;;;;;;;2.00;0.00;;;;;15.10;54.47;101066.69;5069334;28;45545;-44
2022/11/01 05:51:57;;;;;;;;;3.00;0.50;;;;;15.08;54.81;101080.84;5072421;27;68125;-42
2022/11/01 05:54:23;;;;;;;;;3.50;0.50;;;;;15.08;54.52;101078.22;5074767;27;65692;-44
2022/11/01 05:56:48;;;;;;;;;3.25;0.50;;;;;15.05;54.85;101073.94;5067214;27;45293;-47
2022/11/01 05:59:14;;;;;;;;;3.25;0.50;;;;;15.04;54.61;101085.38;5067496;28;67218;-44
2022/11/01 06:01:39;;;;;;;;;1.50;0.50;;;;;15.04;54.56;101090.66;5074120;27;57767;-41
2022/11/01 06:04:05;;;;;;;;;0.00;0.00;;;;;15.04;54.83;101087.16;5067738;28;45577;-45
2022/11/01 06:06:31;;;;;;;;;3.75;0.25;;;;;15.04;54.62;101090.66;5065812;28;45682;-42
2022/11/01 06:08:58;;;;;;;;;1.50;0.00;;;;;15.00;54.74;101095.19;5068141;28;67038;-42
2022/11/01 06:11:25;;;;;;;;;1.25;0.00;;;;;14.97;55.25;101110.28;5076248;27;45354;-43
2022/11/01 06:13:54;;;;;;;;;4.00;2.00;;;;;14.94;55.17;101103.34;5065748;28;45526;-43
2022/11/01 06:16:20;;;;;;;;;1.00;1.00;;;;;14.94;54.89;101095.44;5082524;27;46039;-43
2022/11/01 06:18:45;;;;;;;;;3.50;0.75;;;;;14.91;55.11;101095.56;5083349;27;45306;-42
2022/11/01 06:21:11;;;;;;;;;3.00;0.75;;;;;14.90;54.78;101104.38;5071241;27;62632;-42
2022/11/01 06:23:36;;;;;;;;;1.25;0.75;;;;;14.91;55.45;101116.66;5073375;27;46763;-46
2022/11/01 06:26:02;;;;;;;;;1.75;1.25;;;;;14.93;55.38;101098.13;5078704;27;57019;-42
2022/11/01 06:28:27;;;;;;;;;1.25;1.00;;;;;14.91;54.93;101103.47;5072528;28;45895;-43
2022/11/01 06:30:53;;;;;;;;;6.25;0.50;;;;;14.91;55.02;101106.09;5077287;27;45402;-42
2022/11/01 06:33:18;;;;;;;;;4.25;0.50;;;;;14.90;55.43;101112.28;5074677;28;51122;-43
2022/11/01 06:35:44;;;;;;;;;2.25;0.50;;;;;14.91;54.81;101123.66;5074005;27;57610;-42
2022/11/01 06:38:09;;;;;;;;;3.00;1.00;;;;;14.91;55.40;101121.03;5078135;28;49746;-42
2022/11/01 06:40:35;;;;;;;;;3.75;0.00;;;;;14.93;55.39;101127.13;5080384;28;45367;-41
2022/11/01 06:43:03;;;;;;;;;4.75;0.50;;;;;14.92;55.44;101128.88;5073490;27;45581;-42
2022/11/01 06:45:29;;;;;;;;;4.75;0.75;;;;;14.92;55.24;101136.78;5071819;27;45349;-42
2022/11/01 06:47:55;;;;;;;;;4.25;1.25;;;;;14.93;55.39;101135.88;5075951;28;45378;-41
2022/11/01 06:50:21;;;;;;;;;3.50;2.75;;;;;14.94;55.00;101137.63;5061867;28;65102;-43
2022/11/01 06:52:46;;;;;;;;;6.50;1.00;;;;;14.96;55.52;101140.16;5069803;27;45230;-43
2022/11/01 06:55:11;;;;;;;;;0.75;0.50;;;;;14.99;55.24;101147.97;5070564;27;70120;-44
2022/11/01 06:57:37;;;;;;;;;3.75;1.00;;;;;14.99;55.14;101147.97;5075670;27;45393;-43
2022/11/01 07:00:03;;;;;;;;;6.00;0.50;;;;;14.99;55.38;101156.72;5078614;27;45402;-42
2022/11/01 07:02:28;;;;;;;;;2.75;1.00;;;;;14.98;55.49;101148.91;5076367;28;45469;-42
2022/11/01 07:04:53;;;;;;;;;4.00;0.50;;;;;14.97;55.35;101152.44;5076517;27;62588;-42
2022/11/01 07:07:19;;;;;;;;;3.00;1.00;;;;;14.95;55.16;101155.13;5071318;27;45264;-42
2022/11/01 07:09:44;;;;;;;;;2.75;1.75;;;;;14.97;55.31;101162.97;5077911;27;65712;-45
2022/11/01 07:12:09;;;;;;;;;4.75;1.00;;;;;14.98;55.65;101157.66;5063474;27;45414;-42
2022/11/01 07:14:35;;;;;;;;;4.50;2.00;;;;;15.00;55.36;101169.00;5074983;27;46257;-42
2022/11/01 07:17:00;;;;;;;;;5.00;0.50;;;;;15.04;55.20;101161.81;5060022;28;48820;-44
2022/11/01 07:19:25;;;;;;;;;4.00;2.00;;;;;15.07;55.49;101166.09;5066807;27;65269;-42
2022/11/01 07:21:51;;;;;;;;;3.25;2.00;;;;;15.09;55.06;101165.13;5068879;27;45442;-44
2022/11/01 07:24:16;;;;;;;;;3.00;1.50;;;;;15.13;55.15;101184.34;5065942;27;70317;-41
2022/11/01 07:26:41;;;;;;;;;1.50;0.50;;;;;15.16;55.48;101186.84;5058814;28;45450;-42
2022/11/01 07:29:07;;;;;;;;;6.50;0.75;;;;;15.18;55.18;101185.88;5067247;28;45534;-41
2022/11/01 07:31:32;;;;;;;;;3.00;0.50;;;;;15.21;55.51;101187.53;5068777;27;71145;-42
2022/11/01 07:33:58;;;;;;;;;6.00;3.00;;;;;15.23;55.31;101188.34;5077354;28;46224;-41
2022/11/01 07:36:24;;;;;;;;;10.25;3.50;;;;;15.27;55.13;101194.34;5071714;27;45309;-43
2022/11/01 07:38:49;;;;;;;;;3.50;1.75;;;;;15.29;55.14;101181.97;5071194;27;45444;-43
2022/11/01 07:41:14;;;;;;;;;3.25;0.50;;;;;15.31;54.97;101186.22;5063354;28;45445;-42
2022/11/01 07:43:40;;;;;;;;;4.00;1.75;;;;;15.32;55.26;101198.50;5069885;27;67025;-41
2022/11/01 07:46:06;;;;;;;;;2.25;1.25;;;;;15.33;54.87;101194.97;5089573;27;67476;-42
2022/11/01 07:48:31;;;;;;;;;8.25;3.25;;;;;15.33;54.98;101202.00;5076017;27;45565;-43
2022/11/01 07:50:57;;;;;;;;;1.75;1.75;;;;;15.33;55.01;101208.16;5080313;27;45565;-42
2022/11/01 07:53:22;;;;;;;;;5.50;2.00;;;;;15.35;55.17;101206.31;5079156;27;46555;-44
2022/11/01 07:55:48;;;;;;;;;2.25;1.00;;;;;15.34;54.68;101203.72;5075939;27;45446;-43
2022/11/01 07:58:14;;;;;;;;;4.25;0.50;;;;;15.36;55.23;101213.28;5067872;28;64692;-44
2022/11/01 08:00:41;;;;;;;;;2.00;1.25;;;;;15.41;54.90;101218.41;5073184;27;45253;-46
2022/11/01 08:03:08;;;;;;;;;3.75;1.00;;;;;15.44;54.90;101217.41;5083431;27;45326;-40
2022/11/01 08:05:34;;;;;;;;;1.50;1.25;;;;;15.47;55.01;101219.91;5075602;28;45437;-41
2022/11/01 08:08:00;;;;;;;;;5.25;1.75;;;;;15.50;54.70;101215.38;5091325;27;45542;-50
2022/11/01 08:10:27;;;;;;;;;2.00;0.75;;;;;15.50;54.94;101219.81;5100213;27;45469;-43
2022/11/01 08:12:59;;;;;;;;;3.25;0.75;;;;;15.51;54.88;101229.41;5074534;27;45572;-42
2022/11/01 08:15:24;;;;;;;;;3.50;0.00;;;;;15.51;54.87;101229.41;5077684;28;45359;-42
2022/11/01 08:17:49;;;;;;;;;2.75;1.50;;;;;15.51;54.65;101230.31;5078280;27;47581;-42
2022/11/01 08:20:15;;;;;;;;;2.25;0.00;;;;;15.53;54.81;101231.09;5081323;27;73048;-44
2022/11/01 08:22:40;;;;;;;;;6.00;2.00;;;;;15.52;54.81;101221.44;5071062;27;46982;-43
2022/11/01 08:25:06;;;;;;;;;2.75;1.00;;;;;15.61;54.95;101233.41;5084510;27;45320;-43
2022/11/01 08:27:32;;;;;;;;;3.75;1.00;;;;;15.64;54.69;101232.44;5083446;27;45286;-44
2022/11/01 08:29:57;;;;;;;;;3.00;1.50;;;;;15.64;54.65;101220.09;5071828;27;45367;-42
2022/11/01 08:32:23;;;;;;;;;3.75;2.50;;;;;15.65;54.48;101226.25;5066489;28;47142;-42
2022/11/01 08:34:48;;;;;;;;;8.25;0.75;;;;;15.65;54.31;101219.19;5078275;27;45453;-41
2022/11/01 08:37:14;;;;;;;;;3.75;0.75;;;;;15.66;54.38;101226.19;5079104;27;54100;-42
2022/11/01 08:39:39;;;;;;;;;0.50;0.00;;;;;15.65;54.23;101219.19;5077258;27;45581;-43
2022/11/01 08:42:04;;;;;;;;;2.75;1.75;;;;;15.66;54.15;101220.06;5073200;28;75271;-44
2022/11/01 08:44:31;;;;;;;;;6.75;0.50;;;;;15.65;54.31;101215.69;5079429;27;68006;-42
2022/11/01 08:46:59;;;;;;;;;5.00;1.25;;;;;15.66;54.39;101222.69;5077028;27;45530;-40
2022/11/01 08:49:25;;;;;;;;;2.50;1.75;;;;;15.68;54.35;101210.28;5073458;28;45207;-45
2022/11/01 08:51:50;;;;;;;;;6.00;2.00;;;;;15.73;54.33;101225.00;5077511;28;45895;-45
2022/11/01 08:54:16;;;;;;;;;2.50;1.00;;;;;15.73;54.17;101214.44;5081910;27;45474;-48
2022/11/01 08:56:41;;;;;;;;;2.75;0.00;;;;;15.79;54.33;101220.44;5074649;27;64357;-46
2022/11/01 08:59:06;;;;;;;;;9.75;3.00;;;;;15.85;54.01;101214.91;5068877;28;45691;-47
2022/11/01 09:01:32;;;;;;;;;11.00;8.25;;;;;15.88;54.22;101209.50;5072689;28;46128;-49
2022/11/01 09:04:00;;;;;;;;;30.00;18.50;;;;;15.94;53.88;101214.53;5077841;27;45358;-48
2022/11/01 09:06:26;;;;;;;;;11.50;7.00;;;;;15.98;53.76;101216.13;5062109;28;45396;-46
2022/11/01 09:08:52;;;;;;;;;3.25;1.50;;;;;16.02;53.71;101214.19;5076361;28;45346;-46
2022/11/01 09:11:18;;;;;;;;;3.00;1.00;;;;;16.06;53.60;101213.13;5082292;27;45976;-44
2022/11/01 09:13:43;;;;;;;;;7.00;1.00;;;;;16.09;53.58;101211.22;5081833;27;45961;-44
2022/11/01 09:16:09;;;;;;;;;2.50;0.75;;;;;16.14;53.22;101222.44;5082504;27;45454;-43
2022/11/01 09:18:34;;;;;;;;;1.50;1.00;;;;;16.15;53.46;101218.06;5082198;27;45418;-44
2022/11/01 09:21:00;;;;;;;;;1.75;1.00;;;;;16.14;53.30;101216.31;5071478;27;65082;-42
2022/11/01 09:23:26;;;;;;;;;3.75;1.00;;;;;16.16;53.38;101217.13;5081838;27;45530;-45
2022/11/01 09:25:51;;;;;;;;;3.50;1.25;;;;;16.15;53.38;101218.06;5079860;27;61661;-48
2022/11/01 09:28:17;;;;;;;;;4.50;0.50;;;;;16.19;53.28;101229.34;5081279;27;66543;-47
2022/11/01 09:30:42;;;;;;;;;5.00;2.00;;;;;16.22;53.33;101215.97;5081748;27;46188;-51
2022/11/01 09:33:07;;;;;;;;;3.00;2.00;;;;;16.26;53.32;101229.00;5097343;27;45373;-49
2022/11/01 09:35:33;;;;;;;;;4.00;2.00;;;;;16.29;53.25;101222.75;5079647;27;68605;-48
2022/11/01 09:38:00;;;;;;;;;1.50;1.00;;;;;16.31;53.14;101234.09;5077989;27;45450;-49
2022/11/01 09:40:28;;;;;;;;;1.00;1.00;;;;;16.29;52.94;101223.59;5080599;28;46399;-49
2022/11/01 09:42:53;;;;;;;;;3.00;1.00;;;;;16.30;53.03;101229.72;5080244;27;45244;-48
2022/11/01 09:45:21;;;;;;;;;2.75;1.00;;;;;16.33;52.84;101240.16;5081143;27;64591;-47
2022/11/01 09:47:50;;;;;;;;;8.00;0.75;;;;;16.37;53.06;101243.53;5082765;27;45536;-49
2022/11/01 09:50:28;;;;;;;;;3.50;1.00;;;;;16.40;53.18;101240.78;5081820;28;45583;-45
2022/11/01 09:52:55;;;;;;;;;2.00;1.00;;;;;16.39;53.05;101242.53;5076696;27;45768;-46
2022/11/01 09:55:54;;;;;;;;;3.75;1.00;;;;;16.47;52.70;101231.66;5081087;27;45387;-49
2022/11/01 09:58:37;;;;;;;;;4.00;1.00;;;;;16.51;52.96;101231.44;5080292;28;45605;-49
2022/11/01 10:01:16;;;;;;;;;3.25;1.00;;;;;16.57;52.89;101242.66;5079596;27;46525;-48
2022/11/01 10:04:10;;;;;;;;;1.50;1.25;;;;;16.60;52.64;101243.38;5079756;27;45721;-48
2022/11/01 10:06:40;;;;;;;;;1.25;1.25;;;;;16.63;52.94;101248.53;5079534;28;45378;-48
2022/11/01 10:09:10;;;;;;;;;3.50;2.00;;;;;16.65;52.52;101243.19;5080146;28;45526;-46
2022/11/01 10:11:54;;;;;;;;;3.75;3.00;;;;;16.67;52.44;101241.34;5077868;28;45378;-44
2022/11/01 10:14:53;;;;;;;;;7.50;3.50;;;;;16.68;52.53;101241.28;5075979;27;45316;-43
2022/11/01 10:17:37;;;;;;;;;5.00;1.00;;;;;16.70;52.10;101249.97;5080809;27;45235;-44
2022/11/01 10:20:03;;;;;;;;;1.50;1.00;;;;;16.71;52.30;101229.69;5062830;28;45236;-43
2022/11/01 10:22:33;;;;;;;;;2.00;1.00;;;;;16.73;52.38;101232.28;5087489;27;46112;-45
2022/11/01 10:25:21;;;;;;;;;2.75;2.00;;;;;16.75;52.25;101257.72;5079839;27;45432;-43
2022/11/01 10:27:55;;;;;;;;;1.50;0.00;;;;;16.79;52.11;101234.66;5078305;28;45402;-49
2022/11/01 10:30:21;;;;;;;;;7.00;1.00;;;;;16.81;52.21;101241.56;5074146;28;45406;-44
2022/11/01 10:33:02;;;;;;;;;7.75;4.00;;;;;16.83;52.20;101229.16;5080135;27;45453;-44
2022/11/01 10:35:31;;;;;;;;;3.75;2.00;;;;;16.85;51.89;101247.63;5079342;28;45360;-43
2022/11/01 10:38:04;;;;;;;;;2.50;2.00;;;;;16.88;51.54;101232.47;5079897;27;45362;-42
2022/11/01 10:40:34;;;;;;;;;3.50;2.00;;;;;16.92;51.94;101240.28;5078840;28;45477;-44
2022/11/01 10:43:00;;;;;;;;;3.25;1.25;;;;;16.96;51.67;101237.41;5078617;28;46423;-44
2022/11/01 10:45:26;;;;;;;;;3.25;1.00;;;;;16.98;51.46;101235.56;5078845;27;45335;-45
2022/11/01 10:47:56;;;;;;;;;17.25;8.75;;;;;16.98;51.59;101230.28;5079901;27;66913;-46
2022/11/01 10:50:24;;;;;;;;;2.00;1.25;;;;;17.02;51.48;101233.63;5078419;28;45323;-44
2022/11/01 10:52:59;;;;;;;;;2.00;1.00;;;;;17.05;51.07;101228.19;5077839;27;46129;-43
2022/11/01 10:55:40;;;;;;;;;6.00;4.00;;;;;17.07;51.34;101226.34;5077834;28;45688;-42
2022/11/01 10:58:42;;;;;;;;;1.00;1.00;;;;;17.08;50.92;101228.06;5076430;27;45506;-48
2022/11/01 11:01:11;;;;;;;;;6.25;1.75;;;;;17.12;50.98;101224.31;5078160;27;45350;-44
2022/11/01 11:03:39;;;;;;;;;4.00;2.00;;;;;17.15;50.88;101229.47;5055828;28;45604;-42
2022/11/01 11:06:09;;;;;;;;;5.50;3.00;;;;;17.19;50.35;101235.47;5072445;27;45635;-44
2022/11/01 11:08:37;;;;;;;;;4.00;3.00;;;;;17.22;50.50;101225.63;5072101;28;45305;-43
2022/11/01 11:11:08;;;;;;;;;7.00;2.00;;;;;17.26;50.75;101234.25;5077997;28;45303;-44
2022/11/01 11:13:34;;;;;;;;;4.75;3.00;;;;;17.29;50.28;101228.00;5085537;27;47248;-43
2022/11/01 11:16:04;;;;;;;;;8.25;3.00;;;;;17.32;50.81;101226.06;5077320;28;69051;-46
2022/11/01 11:18:32;;;;;;;;;1.75;1.00;;;;;17.37;50.33;101224.06;5075192;27;45249;-44
2022/11/01 11:21:01;;;;;;;;;3.50;1.25;;;;;17.39;50.43;101223.97;5078613;28;45506;-42
2022/11/01 11:23:28;;;;;;;;;3.75;1.00;;;;;17.40;49.98;101223.88;5077974;27;46213;-42
2022/11/01 11:26:00;;;;;;;;;6.00;2.00;;;;;17.41;50.47;101225.59;5080030;27;45691;-44
2022/11/01 11:28:29;;;;;;;;;4.50;2.00;;;;;17.42;50.22;101222.06;5079161;28;45422;-46
2022/11/01 11:30:57;;;;;;;;;6.75;3.75;;;;;17.46;50.45;101222.75;5078674;27;45785;-46
2022/11/01 11:33:22;;;;;;;;;3.25;2.00;;;;;17.45;50.25;101218.38;5078664;27;45477;-43
2022/11/01 11:35:58;;;;;;;;;3.50;2.00;;;;;17.50;50.22;101219.03;5061297;28;45448;-45
2022/11/01 11:38:44;;;;;;;;;3.00;1.25;;;;;17.53;50.32;101229.47;5099433;27;45265;-43